Time;durP1;ratioP1;P1;durP2;ratioP2;P2;SDS_P1;SDS_P2;PMS_P1;PMS_P2;Temp;Humidity;BMP_temperature;BMP_pressure;BME280_temperature;BME280_humidity;BME280_pressure;Samples;Min_cycle;Max_cycle;Signal;HPM_P1;HPM_P2
2023/03/18 00:00:08;;;;;;;10.07;7.37;;;;;;;;;;5047215;28;20658;-72
2023/03/18 00:02:35;;;;;;;10.97;7.93;;;;;;;;;;5044941;28;20189;-72
2023/03/18 00:05:02;;;;;;;11.30;7.57;;;;;;;;;;5042458;28;20206;-72
2023/03/18 00:07:28;;;;;;;12.07;7.90;;;;;;;;;;5044364;28;20666;-71
2023/03/18 00:09:54;;;;;;;10.40;7.13;;;;;;;;;;5042537;28;20856;-72
2023/03/18 00:12:20;;;;;;;10.67;7.97;;;;;;;;;;5041572;28;20227;-72
2023/03/18 00:14:46;;;;;;;12.17;7.83;;;;;;;;;;5044516;28;20735;-71
2023/03/18 00:17:13;;;;;;;10.70;7.90;;;;;;;;;;5040959;28;20178;-73
2023/03/18 00:19:39;;;;;;;14.07;8.97;;;;;;;;;;5039819;28;20179;-73
2023/03/18 00:22:05;;;;;;;11.73;8.07;;;;;;;;;;5037952;28;20190;-74
2023/03/18 00:24:31;;;;;;;10.87;7.50;;;;;;;;;;5049623;28;20233;-73
2023/03/18 00:26:57;;;;;;;10.67;8.00;;;;;;;;;;5049632;28;20201;-74
2023/03/18 00:29:24;;;;;;;10.30;7.27;;;;;;;;;;5047488;28;20673;-72
2023/03/18 00:31:50;;;;;;;12.13;7.90;;;;;;;;;;5031455;28;20676;-72
2023/03/18 00:34:17;;;;;;;13.70;9.00;;;;;;;;;;5042952;28;20288;-72
2023/03/18 00:36:49;;;;;;;12.33;8.70;;;;;;;;;;5010623;28;20196;-72
2023/03/18 00:39:17;;;;;;;10.67;7.50;;;;;;;;;;5048797;28;20181;-72
2023/03/18 00:41:43;;;;;;;12.23;7.77;;;;;;;;;;5046033;28;20193;-72
2023/03/18 00:44:13;;;;;;;12.73;8.80;;;;;;;;;;5041504;28;20204;-72
2023/03/18 00:46:39;;;;;;;12.00;8.73;;;;;;;;;;5048528;28;20181;-72
2023/03/18 00:49:07;;;;;;;12.67;8.43;;;;;;;;;;5039320;28;20273;-72
2023/03/18 00:51:35;;;;;;;13.73;8.80;;;;;;;;;;5043303;28;20216;-72
2023/03/18 00:54:03;;;;;;;15.57;9.90;;;;;;;;;;5037330;28;20290;-72
2023/03/18 00:56:30;;;;;;;14.60;8.90;;;;;;;;;;5033978;28;20261;-72
2023/03/18 00:58:57;;;;;;;14.03;9.50;;;;;;;;;;5049016;28;20224;-72
2023/03/18 01:01:25;;;;;;;13.63;8.93;;;;;;;;;;5027134;28;20722;-72
2023/03/18 01:03:51;;;;;;;14.17;8.80;;;;;;;;;;5051391;28;20217;-72
2023/03/18 01:06:21;;;;;;;12.93;8.83;;;;;;;;;;5038785;28;20206;-72
2023/03/18 01:08:48;;;;;;;13.43;8.70;;;;;;;;;;5047907;28;20206;-72
2023/03/18 01:11:14;;;;;;;13.97;8.30;;;;;;;;;;5039302;28;20189;-72
2023/03/18 01:13:40;;;;;;;12.57;7.83;;;;;;;;;;5045338;28;20789;-72
2023/03/18 01:16:07;;;;;;;12.00;8.63;;;;;;;;;;5060345;28;20769;-72
2023/03/18 01:18:35;;;;;;;9.83;7.50;;;;;;;;;;5046460;28;20240;-72
2023/03/18 01:21:01;;;;;;;10.07;7.60;;;;;;;;;;5021869;28;20213;-72
2023/03/18 01:23:31;;;;;;;10.23;7.60;;;;;;;;;;5039545;28;20637;-72
2023/03/18 01:25:58;;;;;;;10.57;7.70;;;;;;;;;;5030137;28;20580;-72
2023/03/18 01:28:26;;;;;;;12.30;8.63;;;;;;;;;;5035843;28;20197;-72
2023/03/18 01:30:52;;;;;;;13.30;8.70;;;;;;;;;;5047108;28;20182;-72
2023/03/18 01:33:21;;;;;;;11.20;8.20;;;;;;;;;;5038338;28;20174;-72
2023/03/18 01:35:53;;;;;;;11.43;8.03;;;;;;;;;;5029552;28;20269;-72
2023/03/18 01:38:20;;;;;;;9.73;7.00;;;;;;;;;;5030198;28;20177;-72
2023/03/18 01:40:47;;;;;;;13.83;8.00;;;;;;;;;;5043035;28;20823;-72
2023/03/18 01:43:19;;;;;;;13.13;7.90;;;;;;;;;;5041519;28;20182;-72
2023/03/18 01:45:53;;;;;;;14.13;7.50;;;;;;;;;;5043843;28;20269;-72
2023/03/18 01:48:20;;;;;;;13.77;8.57;;;;;;;;;;5046165;28;20202;-72
2023/03/18 01:50:48;;;;;;;12.07;9.10;;;;;;;;;;5033877;28;20566;-72
2023/03/18 01:53:16;;;;;;;12.40;8.23;;;;;;;;;;5042203;28;20189;-72
2023/03/18 01:55:43;;;;;;;10.20;7.93;;;;;;;;;;5045739;28;20166;-72
2023/03/18 01:58:14;;;;;;;9.87;7.80;;;;;;;;;;5046131;28;20209;-72
2023/03/18 02:00:43;;;;;;;14.33;8.47;;;;;;;;;;5044102;28;20179;-72
2023/03/18 02:03:09;;;;;;;9.77;7.40;;;;;;;;;;5039820;28;20189;-72
2023/03/18 02:05:36;;;;;;;9.60;7.40;;;;;;;;;;5042518;28;20202;-72
2023/03/18 02:08:02;;;;;;;10.07;7.40;;;;;;;;;;5044779;28;20217;-72
2023/03/18 02:10:30;;;;;;;11.20;7.23;;;;;;;;;;5044623;28;20170;-71
2023/03/18 02:12:59;;;;;;;11.60;7.43;;;;;;;;;;5044778;28;20186;-72
2023/03/18 02:15:32;;;;;;;12.50;8.00;;;;;;;;;;5042020;28;20696;-72
2023/03/18 02:18:10;;;;;;;11.03;7.40;;;;;;;;;;5055901;28;20186;-72
2023/03/18 02:20:44;;;;;;;9.50;6.67;;;;;;;;;;5043070;28;20261;-71
2023/03/18 02:23:35;;;;;;;12.27;7.40;;;;;;;;;;5028716;28;20796;-72
2023/03/18 02:26:28;;;;;;;12.47;8.13;;;;;;;;;;5031995;28;20197;-71
2023/03/18 02:28:57;;;;;;;11.67;7.73;;;;;;;;;;5041711;28;20233;-72
2023/03/18 02:31:25;;;;;;;8.07;6.03;;;;;;;;;;5046932;28;20272;-72
2023/03/18 02:33:51;;;;;;;8.20;5.90;;;;;;;;;;5045908;28;20205;-72
2023/03/18 02:36:19;;;;;;;15.03;8.43;;;;;;;;;;5046225;28;20190;-72
2023/03/18 02:38:46;;;;;;;11.17;7.37;;;;;;;;;;5046374;28;20646;-72
2023/03/18 02:41:25;;;;;;;12.10;7.23;;;;;;;;;;5045101;28;20182;-72
2023/03/18 02:43:52;;;;;;;10.03;6.30;;;;;;;;;;5046027;28;20289;-71
2023/03/18 02:46:22;;;;;;;8.47;5.87;;;;;;;;;;5045298;28;20656;-71
2023/03/18 02:48:49;;;;;;;8.70;6.23;;;;;;;;;;5046598;28;20201;-72
2023/03/18 02:51:17;;;;;;;8.50;5.87;;;;;;;;;;5045921;28;20228;-72
2023/03/18 02:53:44;;;;;;;7.43;5.87;;;;;;;;;;5045600;28;20224;-71
2023/03/18 02:56:10;;;;;;;6.80;5.33;;;;;;;;;;5045438;28;20192;-71
2023/03/18 02:58:39;;;;;;;6.40;5.67;;;;;;;;;;5046902;28;20196;-71
2023/03/18 03:01:06;;;;;;;12.60;7.70;;;;;;;;;;5045300;28;20185;-72
2023/03/18 03:03:33;;;;;;;12.40;7.70;;;;;;;;;;5056556;28;20286;-71
2023/03/18 03:06:00;;;;;;;8.90;6.47;;;;;;;;;;5046593;28;20178;-72
2023/03/18 03:08:27;;;;;;;8.30;5.17;;;;;;;;;;5044969;28;20205;-72
2023/03/18 03:10:53;;;;;;;7.67;5.80;;;;;;;;;;5029728;28;20197;-72
2023/03/18 03:13:20;;;;;;;14.73;8.47;;;;;;;;;;5045634;28;20193;-72
2023/03/18 03:15:47;;;;;;;16.00;8.00;;;;;;;;;;5046893;28;20809;-72
2023/03/18 03:18:14;;;;;;;14.67;8.40;;;;;;;;;;5045875;28;20185;-72
2023/03/18 03:20:42;;;;;;;16.43;8.07;;;;;;;;;;5046436;28;20204;-72
2023/03/18 03:23:11;;;;;;;11.80;7.13;;;;;;;;;;5045512;28;20181;-72
2023/03/18 03:25:38;;;;;;;9.30;6.03;;;;;;;;;;5046136;28;20229;-72
2023/03/18 03:28:06;;;;;;;9.70;6.80;;;;;;;;;;5040561;28;20219;-74
2023/03/18 03:30:32;;;;;;;8.10;6.13;;;;;;;;;;5045926;28;20170;-72
2023/03/18 03:32:59;;;;;;;7.93;6.07;;;;;;;;;;5046643;28;20177;-72
2023/03/18 03:35:25;;;;;;;7.13;5.03;;;;;;;;;;5047305;28;20198;-72
2023/03/18 03:37:51;;;;;;;7.80;6.17;;;;;;;;;;5045331;28;20178;-72
2023/03/18 03:40:19;;;;;;;9.23;6.10;;;;;;;;;;5047280;28;20231;-72
2023/03/18 03:42:46;;;;;;;9.47;5.90;;;;;;;;;;5044872;28;20292;-72
2023/03/18 03:45:14;;;;;;;11.20;6.23;;;;;;;;;;5042126;28;20295;-72
2023/03/18 03:47:42;;;;;;;13.03;7.33;;;;;;;;;;5040977;28;20284;-72
2023/03/18 03:50:10;;;;;;;9.73;6.63;;;;;;;;;;5044478;28;20280;-72
2023/03/18 03:52:37;;;;;;;10.43;6.17;;;;;;;;;;5044950;28;20696;-72
2023/03/18 03:55:05;;;;;;;8.10;6.50;;;;;;;;;;5027911;28;20215;-72
2023/03/18 03:57:31;;;;;;;8.30;6.20;;;;;;;;;;5045332;28;20189;-72
2023/03/18 03:59:57;;;;;;;8.40;6.03;;;;;;;;;;5045500;28;20272;-72
2023/03/18 04:02:43;;;;;;;29.03;11.80;;;;;;;;;;5041853;28;20672;-72
2023/03/18 04:05:12;;;;;;;15.27;8.30;;;;;;;;;;5043676;28;20221;-72
2023/03/18 04:07:39;;;;;;;13.27;7.77;;;;;;;;;;5044690;28;20205;-72
2023/03/18 04:10:08;;;;;;;10.53;7.13;;;;;;;;;;5043951;28;20269;-72
2023/03/18 04:12:35;;;;;;;9.10;7.10;;;;;;;;;;5045551;28;20189;-72
2023/03/18 04:15:02;;;;;;;8.83;6.13;;;;;;;;;;5046005;28;20547;-71
2023/03/18 04:17:29;;;;;;;7.23;5.83;;;;;;;;;;5046007;28;20200;-71
2023/03/18 04:19:55;;;;;;;9.50;6.87;;;;;;;;;;5045019;28;20707;-72
2023/03/18 04:22:23;;;;;;;21.20;11.57;;;;;;;;;;5045334;28;20189;-71
2023/03/18 04:24:49;;;;;;;15.03;10.67;;;;;;;;;;5045663;28;20206;-72
2023/03/18 04:27:17;;;;;;;11.47;8.53;;;;;;;;;;5044745;28;20236;-72
2023/03/18 04:29:43;;;;;;;10.50;7.53;;;;;;;;;;5028401;28;20257;-71
2023/03/18 04:32:11;;;;;;;8.57;6.53;;;;;;;;;;5028841;28;20185;-72
2023/03/18 04:34:38;;;;;;;9.63;6.50;;;;;;;;;;5045915;28;20197;-72
2023/03/18 04:37:04;;;;;;;9.00;6.30;;;;;;;;;;5045568;28;20820;-72
2023/03/18 04:39:33;;;;;;;11.33;5.73;;;;;;;;;;5044705;28;20200;-72
2023/03/18 04:41:59;;;;;;;8.73;5.20;;;;;;;;;;5043701;28;20268;-72
2023/03/18 04:44:27;;;;;;;8.90;5.70;;;;;;;;;;5019419;28;20671;-72
2023/03/18 04:46:53;;;;;;;9.00;5.23;;;;;;;;;;5045721;28;20194;-72
2023/03/18 04:49:20;;;;;;;6.70;5.00;;;;;;;;;;5028567;28;20273;-71
2023/03/18 04:51:47;;;;;;;10.10;5.67;;;;;;;;;;5044810;28;20609;-72
2023/03/18 04:54:23;;;;;;;8.13;6.07;;;;;;;;;;5045135;28;20209;-72
2023/03/18 04:56:52;;;;;;;7.03;5.50;;;;;;;;;;5044963;28;20178;-72
2023/03/18 04:59:19;;;;;;;7.70;5.93;;;;;;;;;;5043156;28;20186;-72
2023/03/18 05:01:47;;;;;;;7.27;5.70;;;;;;;;;;5044691;28;20170;-72
2023/03/18 05:04:15;;;;;;;8.60;5.87;;;;;;;;;;5044160;28;20214;-72
2023/03/18 05:06:47;;;;;;;6.83;5.17;;;;;;;;;;5044898;28;20192;-72
2023/03/18 05:09:14;;;;;;;7.20;5.50;;;;;;;;;;5045869;28;20716;-72
2023/03/18 05:11:42;;;;;;;8.03;5.50;;;;;;;;;;5049267;28;20624;-72
2023/03/18 05:14:15;;;;;;;7.80;5.70;;;;;;;;;;5048788;28;20260;-72
2023/03/18 05:16:45;;;;;;;7.33;5.20;;;;;;;;;;5048597;28;20209;-72
2023/03/18 05:19:12;;;;;;;9.47;5.33;;;;;;;;;;5048193;28;20246;-72
2023/03/18 05:21:46;;;;;;;6.43;4.97;;;;;;;;;;5048548;28;20166;-72
2023/03/18 05:24:13;;;;;;;6.97;4.90;;;;;;;;;;5048565;28;20198;-72
2023/03/18 05:26:41;;;;;;;6.40;4.90;;;;;;;;;;5048988;28;20174;-72
2023/03/18 05:29:08;;;;;;;7.57;5.10;;;;;;;;;;5048407;28;20200;-72
2023/03/18 05:31:58;;;;;;;8.87;5.30;;;;;;;;;;5035097;28;20646;-72
2023/03/18 05:34:26;;;;;;;9.67;6.10;;;;;;;;;;5041150;28;20255;-72
2023/03/18 05:36:52;;;;;;;7.43;5.57;;;;;;;;;;5048243;28;20174;-72
2023/03/18 05:39:19;;;;;;;7.93;5.53;;;;;;;;;;5047263;28;20818;-72
2023/03/18 05:41:45;;;;;;;10.03;6.10;;;;;;;;;;5031917;28;20605;-72
2023/03/18 05:44:16;;;;;;;10.57;5.87;;;;;;;;;;5030781;28;20213;-72
2023/03/18 05:46:43;;;;;;;8.43;5.27;;;;;;;;;;5049760;28;20174;-72
2023/03/18 05:49:22;;;;;;;8.63;4.73;;;;;;;;;;5046951;28;20181;-72
2023/03/18 05:52:04;;;;;;;12.63;7.10;;;;;;;;;;5046685;28;20198;-72
2023/03/18 05:54:43;;;;;;;8.67;5.80;;;;;;;;;;5048051;28;20234;-72
2023/03/18 05:57:10;;;;;;;9.27;6.27;;;;;;;;;;5048333;28;20181;-72
2023/03/18 05:59:37;;;;;;;9.73;6.10;;;;;;;;;;5047311;28;20184;-72
2023/03/18 06:02:03;;;;;;;9.33;5.40;;;;;;;;;;5030666;28;20243;-72
2023/03/18 06:04:30;;;;;;;11.53;5.77;;;;;;;;;;5048372;28;20236;-72
2023/03/18 06:06:57;;;;;;;6.07;4.70;;;;;;;;;;5044764;28;20174;-72
2023/03/18 06:09:24;;;;;;;8.73;4.70;;;;;;;;;;5046846;28;20192;-72
2023/03/18 06:11:51;;;;;;;8.27;5.37;;;;;;;;;;5047223;28;20765;-72
2023/03/18 06:14:17;;;;;;;8.13;4.70;;;;;;;;;;5048847;28;20219;-72
2023/03/18 06:16:44;;;;;;;8.77;5.00;;;;;;;;;;5047539;28;20182;-72
2023/03/18 06:19:11;;;;;;;6.97;4.80;;;;;;;;;;5047813;28;20211;-72
2023/03/18 06:21:38;;;;;;;5.47;3.80;;;;;;;;;;5046494;28;20657;-72
2023/03/18 06:24:05;;;;;;;7.03;3.50;;;;;;;;;;5045702;28;20210;-72
2023/03/18 06:26:33;;;;;;;5.27;3.43;;;;;;;;;;5031275;28;20201;-72
2023/03/18 06:29:02;;;;;;;6.07;3.80;;;;;;;;;;5047086;28;20247;-71
2023/03/18 06:31:28;;;;;;;7.77;4.67;;;;;;;;;;5047140;28;20185;-72
2023/03/18 06:33:55;;;;;;;6.47;3.90;;;;;;;;;;5046907;28;20209;-71
2023/03/18 06:36:23;;;;;;;5.97;3.93;;;;;;;;;;5047034;28;20186;-72
2023/03/18 06:38:50;;;;;;;4.93;3.50;;;;;;;;;;5046658;28;20217;-72
2023/03/18 06:41:17;;;;;;;3.90;3.07;;;;;;;;;;5046916;28;20182;-71
2023/03/18 06:43:57;;;;;;;4.93;3.40;;;;;;;;;;5046856;28;20724;-71
2023/03/18 06:46:24;;;;;;;7.67;4.93;;;;;;;;;;5047361;28;20185;-74
2023/03/18 06:48:50;;;;;;;6.83;4.67;;;;;;;;;;5046448;28;20716;-72
2023/03/18 06:51:22;;;;;;;6.77;3.97;;;;;;;;;;5042255;28;20207;-72
2023/03/18 06:53:50;;;;;;;7.87;4.20;;;;;;;;;;5030872;28;20661;-71
2023/03/18 06:56:16;;;;;;;7.30;4.13;;;;;;;;;;5043547;28;20198;-72
2023/03/18 06:59:00;;;;;;;6.80;4.07;;;;;;;;;;5046351;28;20190;-72
2023/03/18 07:01:29;;;;;;;10.20;4.83;;;;;;;;;;5043630;28;20182;-77
2023/03/18 07:03:57;;;;;;;8.40;4.63;;;;;;;;;;5047851;28;20634;-78
2023/03/18 07:06:24;;;;;;;10.83;4.90;;;;;;;;;;5032891;28;20182;-79
2023/03/18 07:08:50;;;;;;;6.90;4.10;;;;;;;;;;5049483;28;20816;-74
2023/03/18 07:11:16;;;;;;;5.30;3.10;;;;;;;;;;5047321;28;20581;-74
2023/03/18 07:13:43;;;;;;;4.77;2.97;;;;;;;;;;5044085;28;20666;-74
2023/03/18 07:16:17;;;;;;;5.93;2.73;;;;;;;;;;5047160;28;20189;-73
2023/03/18 07:18:44;;;;;;;3.93;2.30;;;;;;;;;;5046789;28;20182;-74
2023/03/18 07:21:12;;;;;;;3.03;2.10;;;;;;;;;;5048933;28;20181;-73
2023/03/18 07:23:39;;;;;;;2.97;2.13;;;;;;;;;;5047391;28;20182;-75
2023/03/18 07:26:06;;;;;;;4.63;2.13;;;;;;;;;;5031610;28;20185;-75
2023/03/18 07:28:32;;;;;;;4.40;2.10;;;;;;;;;;5048551;28;20205;-73
2023/03/18 07:30:58;;;;;;;3.03;1.90;;;;;;;;;;5030325;28;20174;-71
2023/03/18 07:33:24;;;;;;;4.87;2.30;;;;;;;;;;5047235;28;20704;-71
2023/03/18 07:35:50;;;;;;;4.50;2.07;;;;;;;;;;5044338;28;20178;-74
2023/03/18 07:38:17;;;;;;;4.03;2.10;;;;;;;;;;5044958;28;20178;-71
2023/03/18 07:40:44;;;;;;;3.33;2.60;;;;;;;;;;5046312;28;20170;-72
2023/03/18 07:43:10;;;;;;;2.97;2.40;;;;;;;;;;5046886;28;20170;-72
2023/03/18 07:45:37;;;;;;;5.87;2.73;;;;;;;;;;5044169;28;20247;-71
2023/03/18 07:48:04;;;;;;;3.50;2.27;;;;;;;;;;5040059;28;20205;-71
2023/03/18 07:50:30;;;;;;;3.73;2.30;;;;;;;;;;5040957;28;20931;-71
2023/03/18 07:52:56;;;;;;;3.17;2.23;;;;;;;;;;5045535;28;20606;-72
2023/03/18 07:55:23;;;;;;;4.60;2.60;;;;;;;;;;5046330;28;20259;-72
2023/03/18 07:57:49;;;;;;;6.53;2.30;;;;;;;;;;5045874;28;20181;-74
2023/03/18 08:00:15;;;;;;;3.37;2.60;;;;;;;;;;5047095;28;20194;-73
2023/03/18 08:02:41;;;;;;;3.37;2.63;;;;;;;;;;5045624;28;20190;-73
2023/03/18 08:05:08;;;;;;;5.53;2.93;;;;;;;;;;5045858;28;20251;-72
2023/03/18 08:07:34;;;;;;;10.73;2.00;;;;;;;;;;5047048;28;20205;-72
2023/03/18 08:10:01;;;;;;;5.90;2.60;;;;;;;;;;5044091;28;20200;-72
2023/03/18 08:12:27;;;;;;;3.67;2.30;;;;;;;;;;5041062;28;20276;-71
2023/03/18 08:14:53;;;;;;;4.73;2.40;;;;;;;;;;5045095;28;20193;-71
2023/03/18 08:17:20;;;;;;;5.67;2.50;;;;;;;;;;5046807;28;20292;-71
2023/03/18 08:19:47;;;;;;;4.27;2.37;;;;;;;;;;5045063;28;20177;-71
2023/03/18 08:22:14;;;;;;;4.43;2.00;;;;;;;;;;5046412;28;20198;-71
2023/03/18 08:24:41;;;;;;;5.40;2.20;;;;;;;;;;5043511;28;20251;-71
2023/03/18 08:27:08;;;;;;;3.57;1.87;;;;;;;;;;5044420;28;20182;-71
2023/03/18 08:29:34;;;;;;;3.57;2.20;;;;;;;;;;5039976;28;20205;-71
2023/03/18 08:32:01;;;;;;;3.43;2.40;;;;;;;;;;5046042;28;20177;-71
2023/03/18 08:34:27;;;;;;;4.27;2.10;;;;;;;;;;5043637;28;20200;-71
2023/03/18 08:36:53;;;;;;;3.83;2.40;;;;;;;;;;5046123;28;20177;-71
2023/03/18 08:39:19;;;;;;;2.60;2.10;;;;;;;;;;5045469;28;20187;-71
2023/03/18 08:41:46;;;;;;;3.77;2.27;;;;;;;;;;5045749;28;20178;-71
2023/03/18 08:44:12;;;;;;;3.30;1.80;;;;;;;;;;5046773;28;20279;-71
2023/03/18 08:46:38;;;;;;;4.70;2.17;;;;;;;;;;5037041;28;20175;-71
2023/03/18 08:49:05;;;;;;;5.63;2.20;;;;;;;;;;5038342;28;20218;-71
2023/03/18 08:51:31;;;;;;;4.50;2.03;;;;;;;;;;5048370;28;20197;-71
2023/03/18 08:53:58;;;;;;;5.30;2.30;;;;;;;;;;5049527;28;20720;-71
2023/03/18 08:56:24;;;;;;;6.27;2.50;;;;;;;;;;5048757;28;20178;-71
2023/03/18 08:58:50;;;;;;;9.13;2.17;;;;;;;;;;5049772;28;20269;-71
2023/03/18 09:01:20;;;;;;;4.60;2.10;;;;;;;;;;5049939;28;20177;-71
2023/03/18 09:03:46;;;;;;;4.37;2.30;;;;;;;;;;5046503;28;20221;-71
2023/03/18 09:06:13;;;;;;;3.97;2.03;;;;;;;;;;5029383;28;20240;-71
2023/03/18 09:08:39;;;;;;;3.87;1.90;;;;;;;;;;5038761;28;20946;-71
2023/03/18 09:11:06;;;;;;;3.30;2.03;;;;;;;;;;5047671;28;20192;-71
2023/03/18 09:13:32;;;;;;;3.37;2.20;;;;;;;;;;5045943;28;20268;-71
2023/03/18 09:15:59;;;;;;;5.40;2.10;;;;;;;;;;5048781;28;20213;-71
2023/03/18 09:18:25;;;;;;;4.10;2.10;;;;;;;;;;5050136;28;20184;-71
2023/03/18 09:20:51;;;;;;;4.40;2.00;;;;;;;;;;5032428;28;20201;-71
2023/03/18 09:23:18;;;;;;;5.80;2.10;;;;;;;;;;5049637;28;20589;-71
2023/03/18 09:25:49;;;;;;;2.97;2.03;;;;;;;;;;5047890;28;20211;-71
2023/03/18 09:28:15;;;;;;;6.30;4.00;;;;;;;;;;5049373;28;20218;-71
2023/03/18 09:30:41;;;;;;;3.50;2.23;;;;;;;;;;5027587;28;20841;-71
2023/03/18 09:33:10;;;;;;;3.97;2.20;;;;;;;;;;5049419;28;20181;-71
2023/03/18 09:35:36;;;;;;;3.50;1.80;;;;;;;;;;5049051;28;20608;-71
2023/03/18 09:38:03;;;;;;;5.27;1.83;;;;;;;;;;5050081;28;20188;-71
2023/03/18 09:40:31;;;;;;;5.93;1.90;;;;;;;;;;5050188;28;20374;-71
2023/03/18 09:43:01;;;;;;;3.60;1.97;;;;;;;;;;5048622;28;20186;-71
2023/03/18 09:45:34;;;;;;;3.37;2.07;;;;;;;;;;5045804;28;20249;-71
2023/03/18 09:48:17;;;;;;;3.63;1.90;;;;;;;;;;5046642;28;20239;-71
2023/03/18 09:50:56;;;;;;;2.77;1.90;;;;;;;;;;5029486;28;20757;-71
2023/03/18 09:53:40;;;;;;;3.17;1.97;;;;;;;;;;5046281;28;20170;-71
2023/03/18 09:56:12;;;;;;;2.60;1.90;;;;;;;;;;5048750;28;20609;-71
2023/03/18 09:58:53;;;;;;;5.50;2.20;;;;;;;;;;5049484;28;20589;-71
2023/03/18 10:01:21;;;;;;;2.93;2.00;;;;;;;;;;5048096;28;20185;-71
2023/03/18 10:03:53;;;;;;;4.73;2.37;;;;;;;;;;5049154;28;20217;-71
2023/03/18 10:06:20;;;;;;;4.50;2.40;;;;;;;;;;5044013;28;20193;-71
2023/03/18 10:08:57;;;;;;;6.47;2.60;;;;;;;;;;5049381;28;20240;-71
2023/03/18 10:11:26;;;;;;;5.33;2.73;;;;;;;;;;5049082;28;20203;-71
2023/03/18 10:13:56;;;;;;;3.90;2.23;;;;;;;;;;5045318;28;20197;-71
2023/03/18 10:16:25;;;;;;;4.43;2.47;;;;;;;;;;5046093;28;20185;-72
2023/03/18 10:18:52;;;;;;;4.13;2.03;;;;;;;;;;5046461;28;20186;-71
2023/03/18 10:21:29;;;;;;;3.83;2.10;;;;;;;;;;5029436;28;20720;-71
2023/03/18 10:24:05;;;;;;;3.33;1.87;;;;;;;;;;5054014;28;20230;-71
2023/03/18 10:26:45;;;;;;;4.47;2.07;;;;;;;;;;5044209;28;20193;-72
2023/03/18 10:29:14;;;;;;;3.93;1.87;;;;;;;;;;5045967;28;20732;-71
2023/03/18 10:31:59;;;;;;;3.17;2.20;;;;;;;;;;5030077;28;20181;-71
2023/03/18 10:34:46;;;;;;;3.47;2.20;;;;;;;;;;5045626;28;20200;-71
2023/03/18 10:37:32;;;;;;;3.60;2.37;;;;;;;;;;5027515;28;20233;-71
2023/03/18 10:39:59;;;;;;;4.00;2.40;;;;;;;;;;5047247;28;20182;-71
2023/03/18 10:42:30;;;;;;;2.47;1.97;;;;;;;;;;5048090;28;20309;-72
2023/03/18 10:45:07;;;;;;;3.90;2.30;;;;;;;;;;5048670;28;20198;-71
2023/03/18 10:47:36;;;;;;;3.57;2.20;;;;;;;;;;5044664;28;20212;-74
2023/03/18 10:50:10;;;;;;;4.53;2.20;;;;;;;;;;5040236;28;20339;-73
2023/03/18 10:52:40;;;;;;;3.07;1.70;;;;;;;;;;5047160;28;20232;-71
2023/03/18 10:55:13;;;;;;;5.07;2.03;;;;;;;;;;5048087;28;20194;-72
2023/03/18 10:57:39;;;;;;;3.30;2.03;;;;;;;;;;5045290;28;20321;-72
2023/03/18 11:00:10;;;;;;;5.17;2.40;;;;;;;;;;5048234;28;20185;-73
2023/03/18 11:02:38;;;;;;;3.70;2.07;;;;;;;;;;5046336;28;20177;-73
2023/03/18 11:05:15;;;;;;;3.40;2.10;;;;;;;;;;5046476;28;20201;-72
2023/03/18 11:07:58;;;;;;;14.80;7.73;;;;;;;;;;5042359;28;20201;-72
2023/03/18 11:10:27;;;;;;;4.83;3.37;;;;;;;;;;5045260;28;20208;-72
2023/03/18 11:13:05;;;;;;;3.67;2.33;;;;;;;;;;5045841;28;20178;-72
2023/03/18 11:15:39;;;;;;;4.03;2.60;;;;;;;;;;5028209;28;20190;-72
2023/03/18 11:18:05;;;;;;;4.93;2.20;;;;;;;;;;5037655;28;20184;-73
2023/03/18 11:20:32;;;;;;;4.20;2.00;;;;;;;;;;5047304;28;20546;-72
2023/03/18 11:23:10;;;;;;;5.80;1.93;;;;;;;;;;5046444;28;20189;-73
2023/03/18 11:25:36;;;;;;;3.83;2.10;;;;;;;;;;5043815;28;20206;-73
2023/03/18 11:28:04;;;;;;;2.73;1.83;;;;;;;;;;5047500;28;20282;-73
2023/03/18 11:30:35;;;;;;;4.83;2.10;;;;;;;;;;5047561;28;20176;-73
2023/03/18 11:33:06;;;;;;;4.23;1.97;;;;;;;;;;5035217;28;20174;-74
2023/03/18 11:35:52;;;;;;;3.90;2.00;;;;;;;;;;5044738;28;20512;-73
2023/03/18 11:38:18;;;;;;;5.10;2.20;;;;;;;;;;5022881;28;20204;-73
2023/03/18 11:40:45;;;;;;;3.10;2.00;;;;;;;;;;5047964;28;20204;-73
2023/03/18 11:43:16;;;;;;;3.23;2.40;;;;;;;;;;5047369;28;20181;-73
2023/03/18 11:45:46;;;;;;;5.23;2.10;;;;;;;;;;5046634;28;20299;-73
2023/03/18 11:48:17;;;;;;;3.17;2.27;;;;;;;;;;5045325;28;20202;-73
2023/03/18 11:51:02;;;;;;;6.70;2.27;;;;;;;;;;5044559;28;20190;-73
2023/03/18 11:53:40;;;;;;;3.43;2.13;;;;;;;;;;5046830;28;20170;-74
2023/03/18 11:56:18;;;;;;;6.43;2.30;;;;;;;;;;5044911;28;20194;-73
2023/03/18 11:58:45;;;;;;;4.40;2.13;;;;;;;;;;5047237;28;20181;-72
2023/03/18 12:01:27;;;;;;;10.97;4.37;;;;;;;;;;5045985;28;20189;-72
2023/03/18 12:03:53;;;;;;;7.63;4.30;;;;;;;;;;5046604;28;20656;-73
2023/03/18 12:06:25;;;;;;;3.77;2.50;;;;;;;;;;5045514;28;20283;-73
2023/03/18 12:08:59;;;;;;;3.37;1.60;;;;;;;;;;5042530;28;20197;-73
2023/03/18 12:11:43;;;;;;;8.27;2.43;;;;;;;;;;5037447;28;20852;-72
2023/03/18 12:14:16;;;;;;;4.67;1.93;;;;;;;;;;5044024;28;20193;-74
2023/03/18 12:16:42;;;;;;;5.00;2.00;;;;;;;;;;5045271;28;20193;-76
2023/03/18 12:19:11;;;;;;;3.83;1.90;;;;;;;;;;5049428;28;20182;-72
2023/03/18 12:21:40;;;;;;;3.90;1.80;;;;;;;;;;5050272;28;20193;-74
2023/03/18 12:24:21;;;;;;;4.90;2.27;;;;;;;;;;5050792;28;20209;-73
2023/03/18 12:26:54;;;;;;;2.57;1.90;;;;;;;;;;5050715;28;20658;-75
2023/03/18 12:29:23;;;;;;;2.47;1.73;;;;;;;;;;5050835;28;20316;-77
2023/03/18 12:32:00;;;;;;;2.67;1.90;;;;;;;;;;5051118;28;20184;-74
2023/03/18 12:34:49;;;;;;;5.03;1.97;;;;;;;;;;5051161;28;20206;-73
2023/03/18 12:37:23;;;;;;;2.03;1.60;;;;;;;;;;5043601;28;20185;-75
2023/03/18 12:40:14;;;;;;;4.50;2.10;;;;;;;;;;5049961;28;20288;-76
2023/03/18 12:42:54;;;;;;;2.73;1.80;;;;;;;;;;5050247;28;20920;-74
2023/03/18 12:45:23;;;;;;;3.33;1.40;;;;;;;;;;5049045;28;20621;-72
2023/03/18 12:48:01;;;;;;;4.03;1.80;;;;;;;;;;5058406;28;20205;-76
2023/03/18 12:50:31;;;;;;;4.60;1.83;;;;;;;;;;5049392;28;20263;-75
2023/03/18 12:53:02;;;;;;;2.50;1.63;;;;;;;;;;5050299;28;20190;-73
2023/03/18 12:55:39;;;;;;;4.13;1.90;;;;;;;;;;5049649;28;20238;-72
2023/03/18 12:58:07;;;;;;;3.90;1.80;;;;;;;;;;5036919;28;20191;-74
2023/03/18 13:00:43;;;;;;;5.13;1.93;;;;;;;;;;5054170;28;20233;-74
2023/03/18 13:03:28;;;;;;;3.43;1.53;;;;;;;;;;5039441;28;20202;-73
2023/03/18 13:05:57;;;;;;;3.00;1.70;;;;;;;;;;5046292;28;20186;-74
2023/03/18 13:08:32;;;;;;;2.77;1.60;;;;;;;;;;5051538;28;20207;-74
2023/03/18 13:11:08;;;;;;;3.70;1.80;;;;;;;;;;5050291;28;20854;-74
2023/03/18 13:13:37;;;;;;;4.53;1.57;;;;;;;;;;5047378;28;20182;-75
2023/03/18 13:16:04;;;;;;;4.23;1.87;;;;;;;;;;5047765;28;20182;-75
2023/03/18 13:18:38;;;;;;;4.57;1.97;;;;;;;;;;5048283;28;20196;-76
2023/03/18 13:21:04;;;;;;;5.70;1.90;;;;;;;;;;5049964;28;20190;-73
2023/03/18 13:23:51;;;;;;;5.07;1.90;;;;;;;;;;5048774;28;20278;-74
2023/03/18 13:26:41;;;;;;;2.47;1.77;;;;;;;;;;5012770;28;20198;-75
2023/03/18 13:29:25;;;;;;;3.97;1.90;;;;;;;;;;5044000;28;20680;-74
2023/03/18 13:32:30;;;;;;;4.87;2.07;;;;;;;;;;5044840;28;20168;-75
2023/03/18 13:35:18;;;;;;;3.20;1.80;;;;;;;;;;4966944;28;20320;-75
2023/03/18 13:37:47;;;;;;;2.87;1.70;;;;;;;;;;4994142;28;20740;-75
2023/03/18 13:40:23;;;;;;;5.93;2.00;;;;;;;;;;5025820;28;20216;-75
2023/03/18 13:42:50;;;;;;;4.43;1.87;;;;;;;;;;5042936;28;20197;-73
2023/03/18 13:45:29;;;;;;;3.03;1.90;;;;;;;;;;5046779;28;20644;-74
2023/03/18 13:48:07;;;;;;;3.37;2.00;;;;;;;;;;5045503;28;20212;-74
2023/03/18 13:50:36;;;;;;;3.83;2.00;;;;;;;;;;5044793;28;20178;-75
2023/03/18 13:53:03;;;;;;;4.30;2.00;;;;;;;;;;5045594;28;20193;-75
2023/03/18 13:55:41;;;;;;;3.00;1.80;;;;;;;;;;5042539;28;20206;-75
2023/03/18 13:58:19;;;;;;;3.63;1.57;;;;;;;;;;5044674;28;20271;-75
2023/03/18 14:00:54;;;;;;;2.80;1.87;;;;;;;;;;5044415;28;20189;-82
2023/03/18 14:03:21;;;;;;;4.50;1.90;;;;;;;;;;5043587;28;20723;-77
2023/03/18 14:06:07;;;;;;;3.50;2.10;;;;;;;;;;5045747;28;20673;-77
2023/03/18 14:08:36;;;;;;;2.43;1.60;;;;;;;;;;5045950;28;20248;-78
2023/03/18 14:11:21;;;;;;;3.70;1.77;;;;;;;;;;5045515;28;20272;-75
2023/03/18 14:13:47;;;;;;;2.33;1.90;;;;;;;;;;5042625;28;20202;-75
2023/03/18 14:16:19;;;;;;;3.73;2.10;;;;;;;;;;5044918;28;20182;-75
2023/03/18 14:18:56;;;;;;;3.83;1.80;;;;;;;;;;5044961;28;20196;-75
2023/03/18 14:21:31;;;;;;;2.77;2.10;;;;;;;;;;5045887;28;20182;-74
2023/03/18 14:24:11;;;;;;;3.53;1.93;;;;;;;;;;5043450;28;20615;-77
2023/03/18 14:26:37;;;;;;;2.93;1.87;;;;;;;;;;5044246;28;20230;-77
2023/03/18 14:29:08;;;;;;;2.60;1.60;;;;;;;;;;5047098;28;20813;-76
2023/03/18 14:31:40;;;;;;;2.63;1.50;;;;;;;;;;5043144;28;20563;-77
2023/03/18 14:34:18;;;;;;;3.90;1.70;;;;;;;;;;5045667;28;20290;-76
2023/03/18 14:36:54;;;;;;;3.97;1.97;;;;;;;;;;5046751;28;20280;-76
2023/03/18 14:39:27;;;;;;;3.83;2.07;;;;;;;;;;5047371;28;20314;-77
2023/03/18 14:41:56;;;;;;;3.83;1.87;;;;;;;;;;5047094;28;20211;-77
2023/03/18 14:44:31;;;;;;;3.10;1.73;;;;;;;;;;5046379;28;20291;-76
2023/03/18 14:46:59;;;;;;;4.37;1.90;;;;;;;;;;5048644;28;20178;-76
2023/03/18 14:49:25;;;;;;;2.77;2.03;;;;;;;;;;5048316;28;20214;-77
2023/03/18 14:51:52;;;;;;;3.43;2.07;;;;;;;;;;5048196;28;20206;-76
2023/03/18 14:54:21;;;;;;;4.60;1.80;;;;;;;;;;5048074;28;20215;-77
2023/03/18 14:56:55;;;;;;;3.90;1.90;;;;;;;;;;5048329;28;20180;-76